sensor_id;sensor_type;location;lat;lon;timestamp;temperature;humidity
41116;DHT22;26861;51.824;4.682;2024-03-25T00:02:05;15.10;59.20
41116;DHT22;26861;51.824;4.682;2024-03-25T00:04:30;15.70;60.30
41116;DHT22;26861;51.824;4.682;2024-03-25T00:06:56;15.80;60.50
41116;DHT22;26861;51.824;4.682;2024-03-25T00:09:22;15.70;60.20
41116;DHT22;26861;51.824;4.682;2024-03-25T00:11:47;15.80;60.10
41116;DHT22;26861;51.824;4.682;2024-03-25T00:14:13;15.80;60.80
41116;DHT22;26861;51.824;4.682;2024-03-25T00:16:38;15.80;60.40
41116;DHT22;26861;51.824;4.682;2024-03-25T00:19:04;15.60;60.20
41116;DHT22;26861;51.824;4.682;2024-03-25T00:21:29;15.80;60.10
41116;DHT22;26861;51.824;4.682;2024-03-25T00:23:55;15.70;61.20
41116;DHT22;26861;51.824;4.682;2024-03-25T00:26:23;15.70;57.30
41116;DHT22;26861;51.824;4.682;2024-03-25T00:28:49;15.70;60.30
41116;DHT22;26861;51.824;4.682;2024-03-25T00:31:15;15.60;60.30
41116;DHT22;26861;51.824;4.682;2024-03-25T00:33:40;15.80;60.50
41116;DHT22;26861;51.824;4.682;2024-03-25T00:36:05;15.80;60.30
41116;DHT22;26861;51.824;4.682;2024-03-25T00:38:31;16.00;60.30
41116;DHT22;26861;51.824;4.682;2024-03-25T00:40:57;15.70;60.40
41116;DHT22;26861;51.824;4.682;2024-03-25T00:43:23;15.70;60.00
41116;DHT22;26861;51.824;4.682;2024-03-25T00:45:48;15.70;60.20
41116;DHT22;26861;51.824;4.682;2024-03-25T00:48:14;15.70;60.00
41116;DHT22;26861;51.824;4.682;2024-03-25T00:50:39;15.70;59.50
41116;DHT22;26861;51.824;4.682;2024-03-25T00:53:05;16.50;60.70
41116;DHT22;26861;51.824;4.682;2024-03-25T00:55:31;15.70;59.80
41116;DHT22;26861;51.824;4.682;2024-03-25T00:57:56;15.60;59.90
41116;DHT22;26861;51.824;4.682;2024-03-25T01:00:22;15.60;60.40
41116;DHT22;26861;51.824;4.682;2024-03-25T01:02:47;15.70;59.70
41116;DHT22;26861;51.824;4.682;2024-03-25T01:05:13;15.70;60.20
41116;DHT22;26861;51.824;4.682;2024-03-25T01:07:38;15.60;59.90
41116;DHT22;26861;51.824;4.682;2024-03-25T01:10:04;15.70;60.20
41116;DHT22;26861;51.824;4.682;2024-03-25T01:12:30;15.60;59.60
41116;DHT22;26861;51.824;4.682;2024-03-25T01:14:55;15.60;60.20
41116;DHT22;26861;51.824;4.682;2024-03-25T01:17:22;15.30;59.90
41116;DHT22;26861;51.824;4.682;2024-03-25T01:19:48;15.60;60.00
41116;DHT22;26861;51.824;4.682;2024-03-25T01:22:14;15.60;60.00
41116;DHT22;26861;51.824;4.682;2024-03-25T01:24:39;15.60;60.10
41116;DHT22;26861;51.824;4.682;2024-03-25T01:27:05;15.50;60.30
41116;DHT22;26861;51.824;4.682;2024-03-25T01:29:31;15.70;60.30
41116;DHT22;26861;51.824;4.682;2024-03-25T01:31:58;15.60;60.00
41116;DHT22;26861;51.824;4.682;2024-03-25T01:34:25;15.60;60.50
41116;DHT22;26861;51.824;4.682;2024-03-25T01:36:50;15.50;60.40
41116;DHT22;26861;51.824;4.682;2024-03-25T01:39:16;15.70;60.40
41116;DHT22;26861;51.824;4.682;2024-03-25T01:41:41;15.60;60.50
41116;DHT22;26861;51.824;4.682;2024-03-25T01:44:07;15.50;60.40
41116;DHT22;26861;51.824;4.682;2024-03-25T01:46:32;15.50;60.20
41116;DHT22;26861;51.824;4.682;2024-03-25T01:48:58;15.50;60.40
41116;DHT22;26861;51.824;4.682;2024-03-25T01:51:24;15.60;60.40
41116;DHT22;26861;51.824;4.682;2024-03-25T01:53:49;15.50;60.40
41116;DHT22;26861;51.824;4.682;2024-03-25T01:56:15;15.50;60.10
41116;DHT22;26861;51.824;4.682;2024-03-25T01:58:41;15.50;60.30
41116;DHT22;26861;51.824;4.682;2024-03-25T02:01:07;15.50;60.60
41116;DHT22;26861;51.824;4.682;2024-03-25T02:03:35;15.60;60.00
41116;DHT22;26861;51.824;4.682;2024-03-25T02:06:02;15.50;60.40
41116;DHT22;26861;51.824;4.682;2024-03-25T02:08:29;15.50;60.60
41116;DHT22;26861;51.824;4.682;2024-03-25T02:10:56;15.50;60.40
41116;DHT22;26861;51.824;4.682;2024-03-25T02:13:22;15.50;60.40
41116;DHT22;26861;51.824;4.682;2024-03-25T02:15:48;15.90;60.70
41116;DHT22;26861;51.824;4.682;2024-03-25T02:18:16;15.40;60.20
41116;DHT22;26861;51.824;4.682;2024-03-25T02:20:42;15.50;60.40
41116;DHT22;26861;51.824;4.682;2024-03-25T02:23:08;15.50;60.70
41116;DHT22;26861;51.824;4.682;2024-03-25T02:25:35;15.40;60.20
41116;DHT22;26861;51.824;4.682;2024-03-25T02:28:03;15.50;60.40
41116;DHT22;26861;51.824;4.682;2024-03-25T02:30:29;15.50;59.70
41116;DHT22;26861;51.824;4.682;2024-03-25T02:32:54;15.50;60.40
41116;DHT22;26861;51.824;4.682;2024-03-25T02:35:19;15.50;60.20
41116;DHT22;26861;51.824;4.682;2024-03-25T02:37:46;15.40;60.60
41116;DHT22;26861;51.824;4.682;2024-03-25T02:40:12;15.40;60.10
41116;DHT22;26861;51.824;4.682;2024-03-25T02:42:37;15.50;60.20
41116;DHT22;26861;51.824;4.682;2024-03-25T02:45:05;15.40;60.50
41116;DHT22;26861;51.824;4.682;2024-03-25T02:47:31;15.40;59.10
41116;DHT22;26861;51.824;4.682;2024-03-25T02:49:56;15.40;60.50
41116;DHT22;26861;51.824;4.682;2024-03-25T02:52:22;15.50;60.40
41116;DHT22;26861;51.824;4.682;2024-03-25T02:54:47;15.70;61.00
41116;DHT22;26861;51.824;4.682;2024-03-25T02:57:13;15.40;60.30
41116;DHT22;26861;51.824;4.682;2024-03-25T02:59:38;15.50;60.40
41116;DHT22;26861;51.824;4.682;2024-03-25T03:02:04;15.50;60.00
41116;DHT22;26861;51.824;4.682;2024-03-25T03:04:29;15.40;60.40
41116;DHT22;26861;51.824;4.682;2024-03-25T03:06:55;15.40;60.50
41116;DHT22;26861;51.824;4.682;2024-03-25T03:09:21;15.90;60.80
41116;DHT22;26861;51.824;4.682;2024-03-25T03:11:46;15.40;60.30
41116;DHT22;26861;51.824;4.682;2024-03-25T03:14:12;15.40;60.60
41116;DHT22;26861;51.824;4.682;2024-03-25T03:16:37;15.40;60.40
41116;DHT22;26861;51.824;4.682;2024-03-25T03:19:03;15.60;60.40
41116;DHT22;26861;51.824;4.682;2024-03-25T03:21:28;15.40;60.30
41116;DHT22;26861;51.824;4.682;2024-03-25T03:23:55;15.40;60.20
41116;DHT22;26861;51.824;4.682;2024-03-25T03:26:21;15.50;60.60
41116;DHT22;26861;51.824;4.682;2024-03-25T03:28:46;15.30;60.30
41116;DHT22;26861;51.824;4.682;2024-03-25T03:31:12;15.40;60.50
41116;DHT22;26861;51.824;4.682;2024-03-25T03:33:37;15.80;60.60
41116;DHT22;26861;51.824;4.682;2024-03-25T03:36:03;15.10;60.30
41116;DHT22;26861;51.824;4.682;2024-03-25T03:38:28;15.30;59.70
41116;DHT22;26861;51.824;4.682;2024-03-25T03:40:57;15.30;60.20
41116;DHT22;26861;51.824;4.682;2024-03-25T03:43:23;15.30;56.60
41116;DHT22;26861;51.824;4.682;2024-03-25T03:45:48;15.40;60.40
41116;DHT22;26861;51.824;4.682;2024-03-25T03:48:14;15.30;60.30
41116;DHT22;26861;51.824;4.682;2024-03-25T03:50:39;15.40;60.40
41116;DHT22;26861;51.824;4.682;2024-03-25T03:53:05;15.20;60.50
41116;DHT22;26861;51.824;4.682;2024-03-25T03:55:30;15.30;60.20
41116;DHT22;26861;51.824;4.682;2024-03-25T03:57:56;15.30;60.40
41116;DHT22;26861;51.824;4.682;2024-03-25T04:00:21;15.30;60.30
41116;DHT22;26861;51.824;4.682;2024-03-25T04:02:47;15.40;59.90
41116;DHT22;26861;51.824;4.682;2024-03-25T04:05:12;15.30;60.10
41116;DHT22;26861;51.824;4.682;2024-03-25T04:07:38;15.30;60.10
41116;DHT22;26861;51.824;4.682;2024-03-25T04:10:04;15.20;60.00
41116;DHT22;26861;51.824;4.682;2024-03-25T04:12:29;15.20;59.60
41116;DHT22;26861;51.824;4.682;2024-03-25T04:14:55;15.20;60.10
41116;DHT22;26861;51.824;4.682;2024-03-25T04:17:21;15.20;60.20
41116;DHT22;26861;51.824;4.682;2024-03-25T04:19:48;15.20;60.00
41116;DHT22;26861;51.824;4.682;2024-03-25T04:22:13;15.30;60.50
41116;DHT22;26861;51.824;4.682;2024-03-25T04:24:39;15.20;60.20
41116;DHT22;26861;51.824;4.682;2024-03-25T04:27:04;15.30;60.00
41116;DHT22;26861;51.824;4.682;2024-03-25T04:29:29;15.10;60.10
41116;DHT22;26861;51.824;4.682;2024-03-25T04:31:55;15.20;60.50
41116;DHT22;26861;51.824;4.682;2024-03-25T04:34:20;15.20;60.30
41116;DHT22;26861;51.824;4.682;2024-03-25T04:36:46;15.20;60.00
41116;DHT22;26861;51.824;4.682;2024-03-25T04:39:11;15.20;60.10
41116;DHT22;26861;51.824;4.682;2024-03-25T04:41:37;15.20;60.50
41116;DHT22;26861;51.824;4.682;2024-03-25T04:44:02;15.20;59.90
41116;DHT22;26861;51.824;4.682;2024-03-25T04:46:28;17.10;61.00
41116;DHT22;26861;51.824;4.682;2024-03-25T04:48:53;15.20;60.70
41116;DHT22;26861;51.824;4.682;2024-03-25T04:51:19;15.20;60.40
41116;DHT22;26861;51.824;4.682;2024-03-25T04:53:44;15.10;60.40
41116;DHT22;26861;51.824;4.682;2024-03-25T04:56:10;15.20;60.40
41116;DHT22;26861;51.824;4.682;2024-03-25T04:58:36;15.10;60.20
41116;DHT22;26861;51.824;4.682;2024-03-25T05:06:42;15.10;56.60
41116;DHT22;26861;51.824;4.682;2024-03-25T05:09:08;15.20;56.70
41116;DHT22;26861;51.824;4.682;2024-03-25T05:11:33;15.10;60.40
41116;DHT22;26861;51.824;4.682;2024-03-25T05:13:59;15.10;60.30
41116;DHT22;26861;51.824;4.682;2024-03-25T05:16:25;15.10;60.30
41116;DHT22;26861;51.824;4.682;2024-03-25T05:18:50;15.10;60.40
41116;DHT22;26861;51.824;4.682;2024-03-25T05:21:16;15.00;60.40
41116;DHT22;26861;51.824;4.682;2024-03-25T05:23:41;15.20;60.50
41116;DHT22;26861;51.824;4.682;2024-03-25T05:26:07;15.10;60.80
41116;DHT22;26861;51.824;4.682;2024-03-25T05:28:33;15.20;60.60
41116;DHT22;26861;51.824;4.682;2024-03-25T05:31:08;15.10;60.40
41116;DHT22;26861;51.824;4.682;2024-03-25T05:33:33;15.20;57.10
41116;DHT22;26861;51.824;4.682;2024-03-25T05:35:59;15.10;61.10
41116;DHT22;26861;51.824;4.682;2024-03-25T05:38:24;15.20;60.60
41116;DHT22;26861;51.824;4.682;2024-03-25T05:40:50;15.20;60.90
41116;DHT22;26861;51.824;4.682;2024-03-25T05:43:15;15.20;60.80
41116;DHT22;26861;51.824;4.682;2024-03-25T05:45:41;15.20;60.10
41116;DHT22;26861;51.824;4.682;2024-03-25T05:48:06;15.10;60.50
41116;DHT22;26861;51.824;4.682;2024-03-25T05:50:32;15.20;60.50
41116;DHT22;26861;51.824;4.682;2024-03-25T05:52:57;15.20;60.90
41116;DHT22;26861;51.824;4.682;2024-03-25T05:55:23;15.10;60.50
41116;DHT22;26861;51.824;4.682;2024-03-25T05:57:48;15.20;60.60
41116;DHT22;26861;51.824;4.682;2024-03-25T06:00:14;15.20;60.60
41116;DHT22;26861;51.824;4.682;2024-03-25T06:02:39;15.20;60.00
41116;DHT22;26861;51.824;4.682;2024-03-25T06:05:05;15.10;60.40
41116;DHT22;26861;51.824;4.682;2024-03-25T06:07:30;15.20;60.00
41116;DHT22;26861;51.824;4.682;2024-03-25T06:09:56;15.20;60.40
41116;DHT22;26861;51.824;4.682;2024-03-25T06:12:21;15.10;60.40
41116;DHT22;26861;51.824;4.682;2024-03-25T06:14:47;15.10;60.70
41116;DHT22;26861;51.824;4.682;2024-03-25T06:17:12;15.30;60.80
41116;DHT22;26861;51.824;4.682;2024-03-25T06:19:38;15.10;60.80
41116;DHT22;26861;51.824;4.682;2024-03-25T06:22:03;15.10;60.60
41116;DHT22;26861;51.824;4.682;2024-03-25T06:24:29;15.20;60.00
41116;DHT22;26861;51.824;4.682;2024-03-25T06:26:54;15.10;60.60
41116;DHT22;26861;51.824;4.682;2024-03-25T06:29:20;15.20;61.70
41116;DHT22;26861;51.824;4.682;2024-03-25T06:31:45;15.10;60.60
41116;DHT22;26861;51.824;4.682;2024-03-25T06:34:29;15.20;57.60
41116;DHT22;26861;51.824;4.682;2024-03-25T06:36:55;15.30;61.00
41116;DHT22;26861;51.824;4.682;2024-03-25T06:39:21;15.10;60.60
41116;DHT22;26861;51.824;4.682;2024-03-25T06:41:46;15.10;60.60
41116;DHT22;26861;51.824;4.682;2024-03-25T06:44:12;15.20;59.90
41116;DHT22;26861;51.824;4.682;2024-03-25T06:46:38;15.10;60.30
41116;DHT22;26861;51.824;4.682;2024-03-25T06:49:03;15.10;60.60
41116;DHT22;26861;51.824;4.682;2024-03-25T06:51:29;15.20;60.80
41116;DHT22;26861;51.824;4.682;2024-03-25T06:53:54;15.10;60.40
41116;DHT22;26861;51.824;4.682;2024-03-25T06:56:20;15.10;60.30
41116;DHT22;26861;51.824;4.682;2024-03-25T06:58:45;15.10;60.30
41116;DHT22;26861;51.824;4.682;2024-03-25T07:01:10;15.10;59.70
41116;DHT22;26861;51.824;4.682;2024-03-25T07:03:37;15.10;60.10
41116;DHT22;26861;51.824;4.682;2024-03-25T07:06:03;15.20;60.10
41116;DHT22;26861;51.824;4.682;2024-03-25T07:08:28;15.10;59.50
41116;DHT22;26861;51.824;4.682;2024-03-25T07:10:55;15.10;60.20
41116;DHT22;26861;51.824;4.682;2024-03-25T07:13:21;15.10;60.40
41116;DHT22;26861;51.824;4.682;2024-03-25T07:15:46;15.10;60.30
41116;DHT22;26861;51.824;4.682;2024-03-25T07:18:12;15.10;60.50
41116;DHT22;26861;51.824;4.682;2024-03-25T07:20:40;15.10;60.10
41116;DHT22;26861;51.824;4.682;2024-03-25T07:23:06;15.10;60.50
41116;DHT22;26861;51.824;4.682;2024-03-25T07:25:31;15.10;60.90
41116;DHT22;26861;51.824;4.682;2024-03-25T07:27:57;15.10;60.40
41116;DHT22;26861;51.824;4.682;2024-03-25T07:30:22;15.10;60.30
41116;DHT22;26861;51.824;4.682;2024-03-25T07:32:52;15.10;60.70
41116;DHT22;26861;51.824;4.682;2024-03-25T07:35:18;15.10;60.70
41116;DHT22;26861;51.824;4.682;2024-03-25T07:37:44;15.50;61.20
41116;DHT22;26861;51.824;4.682;2024-03-25T07:40:10;15.10;60.70
41116;DHT22;26861;51.824;4.682;2024-03-25T07:42:37;15.10;60.80
41116;DHT22;26861;51.824;4.682;2024-03-25T07:45:03;15.20;61.00
41116;DHT22;26861;51.824;4.682;2024-03-25T07:47:30;15.20;60.50
41116;DHT22;26861;51.824;4.682;2024-03-25T07:49:56;15.20;61.20
41116;DHT22;26861;51.824;4.682;2024-03-25T07:52:21;15.20;61.00
41116;DHT22;26861;51.824;4.682;2024-03-25T07:54:47;15.20;61.00
41116;DHT22;26861;51.824;4.682;2024-03-25T07:57:12;15.30;61.60
41116;DHT22;26861;51.824;4.682;2024-03-25T07:59:38;15.30;61.50
41116;DHT22;26861;51.824;4.682;2024-03-25T08:02:03;15.30;61.10
41116;DHT22;26861;51.824;4.682;2024-03-25T08:04:29;15.30;62.40
41116;DHT22;26861;51.824;4.682;2024-03-25T08:06:55;15.30;61.80
41116;DHT22;26861;51.824;4.682;2024-03-25T08:09:20;15.40;61.70
41116;DHT22;26861;51.824;4.682;2024-03-25T08:11:46;15.50;61.30
41116;DHT22;26861;51.824;4.682;2024-03-25T08:14:11;15.40;61.80
41116;DHT22;26861;51.824;4.682;2024-03-25T08:16:37;15.40;61.80
41116;DHT22;26861;51.824;4.682;2024-03-25T08:19:03;15.50;61.70
41116;DHT22;26861;51.824;4.682;2024-03-25T08:21:28;15.50;62.10
41116;DHT22;26861;51.824;4.682;2024-03-25T08:23:54;15.50;62.00
41116;DHT22;26861;51.824;4.682;2024-03-25T08:26:20;15.60;61.70
41116;DHT22;26861;51.824;4.682;2024-03-25T08:28:46;15.60;62.20
41116;DHT22;26861;51.824;4.682;2024-03-25T08:31:14;15.50;62.30
41116;DHT22;26861;51.824;4.682;2024-03-25T08:33:40;15.60;62.00
41116;DHT22;26861;51.824;4.682;2024-03-25T08:36:06;15.40;62.20
41116;DHT22;26861;51.824;4.682;2024-03-25T08:38:33;15.70;61.30
41116;DHT22;26861;51.824;4.682;2024-03-25T08:40:58;15.70;62.20
41116;DHT22;26861;51.824;4.682;2024-03-25T08:43:24;15.60;62.00
41116;DHT22;26861;51.824;4.682;2024-03-25T08:45:49;15.80;62.30
41116;DHT22;26861;51.824;4.682;2024-03-25T08:48:15;15.70;62.30
41116;DHT22;26861;51.824;4.682;2024-03-25T08:50:40;15.70;62.20
41116;DHT22;26861;51.824;4.682;2024-03-25T08:53:06;15.70;62.40
41116;DHT22;26861;51.824;4.682;2024-03-25T08:55:31;15.80;62.30
41116;DHT22;26861;51.824;4.682;2024-03-25T08:57:57;15.80;62.10
41116;DHT22;26861;51.824;4.682;2024-03-25T09:00:26;15.90;62.40
41116;DHT22;26861;51.824;4.682;2024-03-25T09:02:52;15.90;61.80
41116;DHT22;26861;51.824;4.682;2024-03-25T09:05:18;15.90;62.30
41116;DHT22;26861;51.824;4.682;2024-03-25T09:07:49;15.90;62.30
41116;DHT22;26861;51.824;4.682;2024-03-25T09:10:17;16.00;58.50
41116;DHT22;26861;51.824;4.682;2024-03-25T09:13:01;16.00;62.30
41116;DHT22;26861;51.824;4.682;2024-03-25T09:15:26;15.80;62.00
41116;DHT22;26861;51.824;4.682;2024-03-25T09:17:52;16.00;62.10
41116;DHT22;26861;51.824;4.682;2024-03-25T09:20:17;16.10;62.10
41116;DHT22;26861;51.824;4.682;2024-03-25T09:22:43;16.10;62.10
41116;DHT22;26861;51.824;4.682;2024-03-25T09:25:09;16.20;62.20
41116;DHT22;26861;51.824;4.682;2024-03-25T09:27:34;16.20;62.20
41116;DHT22;26861;51.824;4.682;2024-03-25T09:30:00;16.50;62.40
41116;DHT22;26861;51.824;4.682;2024-03-25T09:32:26;16.30;62.20
41116;DHT22;26861;51.824;4.682;2024-03-25T09:34:52;16.30;61.90
41116;DHT22;26861;51.824;4.682;2024-03-25T09:37:17;16.40;62.10
41116;DHT22;26861;51.824;4.682;2024-03-25T09:39:43;16.40;61.90
41116;DHT22;26861;51.824;4.682;2024-03-25T09:42:08;16.40;61.60
41116;DHT22;26861;51.824;4.682;2024-03-25T09:44:36;16.60;61.90
41116;DHT22;26861;51.824;4.682;2024-03-25T09:47:01;16.50;61.60
41116;DHT22;26861;51.824;4.682;2024-03-25T09:49:28;16.60;61.80
41116;DHT22;26861;51.824;4.682;2024-03-25T09:51:54;16.70;61.70
41116;DHT22;26861;51.824;4.682;2024-03-25T09:54:20;16.70;61.50
41116;DHT22;26861;51.824;4.682;2024-03-25T09:56:45;16.80;61.40
41116;DHT22;26861;51.824;4.682;2024-03-25T09:59:11;16.80;61.00
41116;DHT22;26861;51.824;4.682;2024-03-25T10:01:37;17.10;60.80
41116;DHT22;26861;51.824;4.682;2024-03-25T10:04:03;16.90;60.90
41116;DHT22;26861;51.824;4.682;2024-03-25T10:06:28;17.00;61.00
41116;DHT22;26861;51.824;4.682;2024-03-25T10:08:57;17.00;59.80
41116;DHT22;26861;51.824;4.682;2024-03-25T10:11:22;17.10;61.30
41116;DHT22;26861;51.824;4.682;2024-03-25T10:13:48;17.10;61.20
41116;DHT22;26861;51.824;4.682;2024-03-25T10:16:13;17.10;60.80
41116;DHT22;26861;51.824;4.682;2024-03-25T10:18:39;17.20;61.10
41116;DHT22;26861;51.824;4.682;2024-03-25T10:21:08;17.40;60.70
41116;DHT22;26861;51.824;4.682;2024-03-25T10:23:35;17.30;60.60
41116;DHT22;26861;51.824;4.682;2024-03-25T10:26:05;17.40;60.60
41116;DHT22;26861;51.824;4.682;2024-03-25T10:28:31;17.40;61.20
41116;DHT22;26861;51.824;4.682;2024-03-25T10:31:02;17.50;60.50
41116;DHT22;26861;51.824;4.682;2024-03-25T10:33:29;17.60;60.40
41116;DHT22;26861;51.824;4.682;2024-03-25T10:35:54;17.60;60.50
41116;DHT22;26861;51.824;4.682;2024-03-25T10:38:21;17.70;60.20
41116;DHT22;26861;51.824;4.682;2024-03-25T10:40:49;17.80;60.30
41116;DHT22;26861;51.824;4.682;2024-03-25T10:43:17;17.80;60.10
41116;DHT22;26861;51.824;4.682;2024-03-25T10:45:47;17.90;60.20
41116;DHT22;26861;51.824;4.682;2024-03-25T10:48:29;18.00;56.90
41116;DHT22;26861;51.824;4.682;2024-03-25T10:50:56;18.00;56.70
41116;DHT22;26861;51.824;4.682;2024-03-25T10:53:22;18.10;59.70
41116;DHT22;26861;51.824;4.682;2024-03-25T10:55:53;18.20;59.80
41116;DHT22;26861;51.824;4.682;2024-03-25T10:58:19;18.30;60.00
41116;DHT22;26861;51.824;4.682;2024-03-25T11:00:46;18.40;59.90
41116;DHT22;26861;51.824;4.682;2024-03-25T11:03:13;18.50;59.30
41116;DHT22;26861;51.824;4.682;2024-03-25T11:05:38;18.50;59.40
41116;DHT22;26861;51.824;4.682;2024-03-25T11:08:14;18.70;59.60
41116;DHT22;26861;51.824;4.682;2024-03-25T11:10:42;18.60;56.30
41116;DHT22;26861;51.824;4.682;2024-03-25T11:13:11;18.70;59.60
41116;DHT22;26861;51.824;4.682;2024-03-25T11:15:40;19.00;56.30
41116;DHT22;26861;51.824;4.682;2024-03-25T11:18:10;18.80;59.40
41116;DHT22;26861;51.824;4.682;2024-03-25T11:20:36;18.90;59.10
41116;DHT22;26861;51.824;4.682;2024-03-25T11:23:07;19.00;59.20
41116;DHT22;26861;51.824;4.682;2024-03-25T11:25:33;19.10;59.00
41116;DHT22;26861;51.824;4.682;2024-03-25T11:27:59;19.10;58.90
41116;DHT22;26861;51.824;4.682;2024-03-25T11:30:24;19.20;58.70
41116;DHT22;26861;51.824;4.682;2024-03-25T11:32:52;19.30;58.70
41116;DHT22;26861;51.824;4.682;2024-03-25T11:35:18;19.30;58.80
41116;DHT22;26861;51.824;4.682;2024-03-25T11:37:44;19.40;58.50
41116;DHT22;26861;51.824;4.682;2024-03-25T11:40:10;19.30;58.70
41116;DHT22;26861;51.824;4.682;2024-03-25T11:42:41;19.60;58.00
41116;DHT22;26861;51.824;4.682;2024-03-25T11:45:13;19.70;55.10
41116;DHT22;26861;51.824;4.682;2024-03-25T11:47:40;19.80;57.60
41116;DHT22;26861;51.824;4.682;2024-03-25T11:50:09;19.80;57.20
41116;DHT22;26861;51.824;4.682;2024-03-25T11:52:34;19.90;57.70
41116;DHT22;26861;51.824;4.682;2024-03-25T11:55:00;20.80;58.20
41116;DHT22;26861;51.824;4.682;2024-03-25T11:57:26;20.00;57.60
41116;DHT22;26861;51.824;4.682;2024-03-25T11:59:51;20.00;57.50
41116;DHT22;26861;51.824;4.682;2024-03-25T12:02:17;20.10;56.90
41116;DHT22;26861;51.824;4.682;2024-03-25T12:04:43;20.10;57.20
41116;DHT22;26861;51.824;4.682;2024-03-25T12:07:10;20.10;57.30
41116;DHT22;26861;51.824;4.682;2024-03-25T12:09:36;20.20;57.20
41116;DHT22;26861;51.824;4.682;2024-03-25T12:12:20;20.30;54.80
41116;DHT22;26861;51.824;4.682;2024-03-25T12:14:45;20.50;56.90
41116;DHT22;26861;51.824;4.682;2024-03-25T12:17:11;20.50;55.90
41116;DHT22;26861;51.824;4.682;2024-03-25T12:19:37;22.40;57.60
41116;DHT22;26861;51.824;4.682;2024-03-25T12:22:04;20.50;56.60
41116;DHT22;26861;51.824;4.682;2024-03-25T12:24:30;20.60;56.50
41116;DHT22;26861;51.824;4.682;2024-03-25T12:26:56;20.50;56.60
41116;DHT22;26861;51.824;4.682;2024-03-25T12:29:22;20.60;56.70
41116;DHT22;26861;51.824;4.682;2024-03-25T12:31:54;20.60;56.60
41116;DHT22;26861;51.824;4.682;2024-03-25T12:34:20;21.00;53.80
41116;DHT22;26861;51.824;4.682;2024-03-25T12:36:50;20.80;56.00
41116;DHT22;26861;51.824;4.682;2024-03-25T12:39:19;21.00;53.40
41116;DHT22;26861;51.824;4.682;2024-03-25T12:41:45;20.90;53.30
41116;DHT22;26861;51.824;4.682;2024-03-25T12:44:14;20.80;56.10
41116;DHT22;26861;51.824;4.682;2024-03-25T12:46:40;20.70;53.90
41116;DHT22;26861;51.824;4.682;2024-03-25T12:49:06;20.60;56.70
41116;DHT22;26861;51.824;4.682;2024-03-25T12:51:32;20.50;56.80
41116;DHT22;26861;51.824;4.682;2024-03-25T12:53:58;20.50;56.90
41116;DHT22;26861;51.824;4.682;2024-03-25T12:56:24;20.40;57.40
41116;DHT22;26861;51.824;4.682;2024-03-25T12:58:50;20.30;57.70
41116;DHT22;26861;51.824;4.682;2024-03-25T13:01:16;20.30;57.40
41116;DHT22;26861;51.824;4.682;2024-03-25T13:03:43;20.50;58.00
41116;DHT22;26861;51.824;4.682;2024-03-25T13:06:08;20.10;58.20
41116;DHT22;26861;51.824;4.682;2024-03-25T13:08:34;20.00;58.50
41116;DHT22;26861;51.824;4.682;2024-03-25T13:10:59;19.90;58.90
41116;DHT22;26861;51.824;4.682;2024-03-25T13:13:25;19.90;58.80
41116;DHT22;26861;51.824;4.682;2024-03-25T13:15:50;19.90;58.30
41116;DHT22;26861;51.824;4.682;2024-03-25T13:18:16;19.90;58.80
41116;DHT22;26861;51.824;4.682;2024-03-25T13:20:43;19.90;58.90
41116;DHT22;26861;51.824;4.682;2024-03-25T13:23:09;19.80;58.90
41116;DHT22;26861;51.824;4.682;2024-03-25T13:25:34;19.80;58.90
41116;DHT22;26861;51.824;4.682;2024-03-25T13:28:00;19.80;58.80
41116;DHT22;26861;51.824;4.682;2024-03-25T13:30:25;19.90;58.80
41116;DHT22;26861;51.824;4.682;2024-03-25T13:32:52;20.10;58.30
41116;DHT22;26861;51.824;4.682;2024-03-25T13:35:17;20.30;57.50
41116;DHT22;26861;51.824;4.682;2024-03-25T13:37:43;20.50;57.20
41116;DHT22;26861;51.824;4.682;2024-03-25T13:40:09;20.70;56.80
41116;DHT22;26861;51.824;4.682;2024-03-25T13:42:36;20.90;55.80
41116;DHT22;26861;51.824;4.682;2024-03-25T13:45:03;21.00;56.40
41116;DHT22;26861;51.824;4.682;2024-03-25T13:47:29;21.00;55.30
41116;DHT22;26861;51.824;4.682;2024-03-25T13:50:01;21.10;55.40
41116;DHT22;26861;51.824;4.682;2024-03-25T13:52:27;21.20;52.60
41116;DHT22;26861;51.824;4.682;2024-03-25T13:54:53;21.20;55.10
41116;DHT22;26861;51.824;4.682;2024-03-25T13:57:21;21.20;55.20
41116;DHT22;26861;51.824;4.682;2024-03-25T13:59:48;21.10;52.50
41116;DHT22;26861;51.824;4.682;2024-03-25T14:02:13;21.60;54.20
41116;DHT22;26861;51.824;4.682;2024-03-25T14:04:39;21.40;54.70
41116;DHT22;26861;51.824;4.682;2024-03-25T14:07:04;21.60;54.90
41116;DHT22;26861;51.824;4.682;2024-03-25T14:09:30;21.40;54.50
41116;DHT22;26861;51.824;4.682;2024-03-25T14:11:55;21.40;54.50
41116;DHT22;26861;51.824;4.682;2024-03-25T14:14:21;21.40;54.30
41116;DHT22;26861;51.824;4.682;2024-03-25T14:16:47;21.60;54.30
41116;DHT22;26861;51.824;4.682;2024-03-25T14:19:12;21.60;54.00
41116;DHT22;26861;51.824;4.682;2024-03-25T14:21:38;21.60;53.60
41116;DHT22;26861;51.824;4.682;2024-03-25T14:24:04;21.60;53.90
41116;DHT22;26861;51.824;4.682;2024-03-25T14:26:30;21.60;53.60
41116;DHT22;26861;51.824;4.682;2024-03-25T14:28:55;21.60;54.30
41116;DHT22;26861;51.824;4.682;2024-03-25T14:31:21;21.60;53.90
41116;DHT22;26861;51.824;4.682;2024-03-25T14:33:46;21.70;54.10
41116;DHT22;26861;51.824;4.682;2024-03-25T14:36:12;21.70;53.80
41116;DHT22;26861;51.824;4.682;2024-03-25T14:38:37;21.80;53.60
41116;DHT22;26861;51.824;4.682;2024-03-25T14:41:04;21.80;53.30
41116;DHT22;26861;51.824;4.682;2024-03-25T14:43:30;21.90;53.10
41116;DHT22;26861;51.824;4.682;2024-03-25T14:45:55;22.00;53.00
41116;DHT22;26861;51.824;4.682;2024-03-25T14:48:21;22.00;52.60
41116;DHT22;26861;51.824;4.682;2024-03-25T14:50:46;22.00;52.90
41116;DHT22;26861;51.824;4.682;2024-03-25T14:53:12;22.00;52.60
41116;DHT22;26861;51.824;4.682;2024-03-25T14:55:37;22.10;52.50
41116;DHT22;26861;51.824;4.682;2024-03-25T14:58:03;21.90;52.80
41116;DHT22;26861;51.824;4.682;2024-03-25T15:00:28;21.80;53.00
41116;DHT22;26861;51.824;4.682;2024-03-25T15:02:54;21.70;52.90
41116;DHT22;26861;51.824;4.682;2024-03-25T15:05:19;21.70;53.90
41116;DHT22;26861;51.824;4.682;2024-03-25T15:07:45;21.60;53.60
41116;DHT22;26861;51.824;4.682;2024-03-25T15:10:11;21.60;53.90
41116;DHT22;26861;51.824;4.682;2024-03-25T15:12:37;21.60;53.40
41116;DHT22;26861;51.824;4.682;2024-03-25T15:15:03;21.60;53.80
41116;DHT22;26861;51.824;4.682;2024-03-25T15:17:31;21.60;53.80
41116;DHT22;26861;51.824;4.682;2024-03-25T15:19:57;21.60;53.90
41116;DHT22;26861;51.824;4.682;2024-03-25T15:22:23;21.60;53.80
41116;DHT22;26861;51.824;4.682;2024-03-25T15:24:49;21.60;53.90
41116;DHT22;26861;51.824;4.682;2024-03-25T15:27:14;21.60;53.60
41116;DHT22;26861;51.824;4.682;2024-03-25T15:29:40;21.60;53.60